Time,TemperatureF,DewpointF,PressureIn,WindDirection,WindDirectionDegrees,WindSpeedMPH,WindSpeedGustMPH,Humidity,HourlyPrecipIn,Conditions,Clouds,dailyrainin,SoftwareType,DateUTC
2013-03-10 00:02:00,44.0,35.0,30.01,SE,127,5.0,-999.0,72,-99.99,,,0.00,weatherlink.com 1.10,2013-03-10 05:02:00,
2013-03-10 00:17:00,45.0,36.0,30.00,SE,128,5.0,-999.0,70,-99.99,,,0.00,weatherlink.com 1.10,2013-03-10 05:17:00,
2013-03-10 00:32:00,45.4,35.0,30.00,SE,129,2.0,-999.0,68,-99.99,,,0.00,weatherlink.com 1.10,2013-03-10 05:32:00,
2013-03-10 00:47:00,45.8,35.0,29.99,SE,129,4.0,-999.0,67,-99.99,,,0.00,weatherlink.com 1.10,2013-03-10 05:47:00,
2013-03-10 01:02:00,46.4,35.0,29.99,SE,130,4.0,-999.0,65,-99.99,,,0.00,weatherlink.com 1.10,2013-03-10 06:02:00,
2013-03-10 01:17:00,47.1,35.0,29.99,SE,130,4.0,-999.0,63,-99.99,,,0.00,weatherlink.com 1.10,2013-03-10 06:17:00,
2013-03-10 01:32:00,48.0,35.0,29.98,SSE,147,4.0,-999.0,61,-99.99,,,0.00,weatherlink.com 1.10,2013-03-10 06:32:00,
2013-03-10 01:47:00,48.9,35.0,29.98,SE,146,5.0,-999.0,59,-99.99,,,0.00,weatherlink.com 1.10,2013-03-10 06:47:00,
2013-03-10 03:02:00,49.4,35.0,29.98,South,169,7.0,-999.0,58,-99.99,,,0.00,weatherlink.com 1.10,2013-03-10 07:02:00,
2013-03-10 03:17:00,49.8,35.0,29.98,SSE,164,8.0,-999.0,57,-99.99,,,0.00,weatherlink.com 1.10,2013-03-10 07:17:00,
2013-03-10 03:32:00,49.3,35.0,29.97,SSE,157,6.0,-999.0,58,-99.99,,,0.00,weatherlink.com 1.10,2013-03-10 07:32:00,
2013-03-10 03:48:00,49.2,35.0,29.97,South,171,5.0,-999.0,58,-99.99,,,0.00,weatherlink.com 1.10,2013-03-10 07:48:00,
2013-03-10 04:03:00,48.7,34.0,29.96,SSE,159,7.0,-999.0,58,-99.99,,,0.00,weatherlink.com 1.10,2013-03-10 08:03:00,
2013-03-10 04:18:00,48.6,35.0,29.96,SSE,161,7.0,-999.0,59,-99.99,,,0.00,weatherlink.com 1.10,2013-03-10 08:18:00,
2013-03-10 04:33:00,48.9,35.0,29.96,SSE,165,9.0,-999.0,59,-99.99,,,0.00,weatherlink.com 1.10,2013-03-10 08:33:00,
2013-03-10 04:48:00,49.4,35.0,29.95,SSE,164,5.0,-999.0,59,-99.99,,,0.00,weatherlink.com 1.10,2013-03-10 08:48:00,
2013-03-10 05:03:00,50.1,35.0,29.95,SSE,157,6.0,-999.0,57,-99.99,,,0.00,weatherlink.com 1.10,2013-03-10 09:03:00,
2013-03-10 05:18:00,50.3,35.0,29.96,SSE,159,5.0,-999.0,57,-99.99,,,0.00,weatherlink.com 1.10,2013-03-10 09:18:00,
2013-03-10 05:33:00,50.4,35.0,29.96,SSE,159,9.0,-999.0,57,-99.99,,,0.00,weatherlink.com 1.10,2013-03-10 09:33:00,
2013-03-10 05:48:00,50.4,36.0,29.96,SSE,157,2.0,-999.0,58,-99.99,,,0.00,weatherlink.com 1.10,2013-03-10 09:48:00,
2013-03-10 06:03:00,50.5,36.0,29.96,SSE,157,5.0,-999.0,58,-99.99,,,0.00,weatherlink.com 1.10,2013-03-10 10:03:00,
2013-03-10 06:18:00,50.5,36.0,29.96,SSE,157,4.0,-999.0,58,-99.99,,,0.00,weatherlink.com 1.10,2013-03-10 10:18:00,
2013-03-10 06:33:00,50.4,36.0,29.96,SSE,155,6.0,-999.0,58,-99.99,,,0.00,weatherlink.com 1.10,2013-03-10 10:33:00,
2013-03-10 06:48:00,50.3,36.0,29.97,SSE,159,5.0,-999.0,58,-99.99,,,0.00,weatherlink.com 1.10,2013-03-10 10:48:00,
2013-03-10 07:04:00,50.2,36.0,29.97,SSE,155,4.0,-999.0,59,-99.99,,,0.00,weatherlink.com 1.10,2013-03-10 11:04:00,
2013-03-10 07:19:00,50.3,36.0,29.97,SSE,155,5.0,-999.0,59,-99.99,,,0.00,weatherlink.com 1.10,2013-03-10 11:19:00,
2013-03-10 07:34:00,50.1,36.0,29.98,SSE,159,2.0,-999.0,59,-99.99,,,0.00,weatherlink.com 1.10,2013-03-10 11:34:00,
2013-03-10 07:49:00,49.8,36.0,29.98,SSE,157,2.0,-999.0,60,-99.99,,,0.00,weatherlink.com 1.10,2013-03-10 11:49:00,
2013-03-10 08:04:00,49.4,36.0,29.98,SSE,157,2.0,-999.0,61,-99.99,,,0.00,weatherlink.com 1.10,2013-03-10 12:04:00,
2013-03-10 08:19:00,48.8,37.0,29.99,SSE,153,5.0,-999.0,63,-99.99,,,0.00,weatherlink.com 1.10,2013-03-10 12:19:00,
2013-03-10 08:34:00,48.9,37.0,29.99,SSE,150,2.0,-999.0,63,-99.99,,,0.00,weatherlink.com 1.10,2013-03-10 12:34:00,
2013-03-10 08:49:00,49.1,37.0,29.99,SE,142,2.0,-999.0,63,-99.99,,,0.00,weatherlink.com 1.10,2013-03-10 12:49:00,
2013-03-10 09:04:00,49.4,38.0,29.98,SE,140,2.0,-999.0,64,-99.99,,,0.00,weatherlink.com 1.10,2013-03-10 13:04:00,
2013-03-10 09:19:00,50.3,38.0,29.98,SE,144,4.0,-999.0,62,-99.99,,,0.00,weatherlink.com 1.10,2013-03-10 13:19:00,
2013-03-10 09:35:00,51.3,38.0,29.98,SSE,153,6.0,-999.0,61,-99.99,,,0.00,weatherlink.com 1.10,2013-03-10 13:35:00,
2013-03-10 09:50:00,52.5,38.0,29.96,SSE,159,7.0,-999.0,58,-99.99,,,0.00,weatherlink.com 1.10,2013-03-10 13:50:00,
2013-03-10 10:05:00,53.7,39.0,29.96,SSE,160,8.0,-999.0,58,-99.99,,,0.00,weatherlink.com 1.10,2013-03-10 14:05:00,
2013-03-10 10:20:00,54.2,39.0,29.96,SSE,165,9.0,-999.0,56,-99.99,,,0.00,weatherlink.com 1.10,2013-03-10 14:20:00,
2013-03-10 10:35:00,54.0,39.0,29.95,SSE,165,6.0,-999.0,57,-99.99,,,0.00,weatherlink.com 1.10,2013-03-10 14:35:00,
2013-03-10 10:50:00,54.1,39.0,29.96,South,180,4.0,-999.0,56,-99.99,,,0.00,weatherlink.com 1.10,2013-03-10 14:50:00,
2013-03-10 11:05:00,54.7,39.0,29.95,SSE,168,10.0,-999.0,56,-99.99,,,0.00,weatherlink.com 1.10,2013-03-10 15:05:00,
2013-03-10 11:20:00,54.7,40.0,29.95,South,169,9.0,-999.0,57,-99.99,,,0.00,weatherlink.com 1.10,2013-03-10 15:20:00,
2013-03-10 11:35:00,55.1,39.0,29.95,SSW,194,7.0,-999.0,56,-99.99,,,0.00,weatherlink.com 1.10,2013-03-10 15:35:00,
2013-03-10 11:50:00,55.4,39.0,29.94,South,171,9.0,-999.0,55,-99.99,,,0.00,weatherlink.com 1.10,2013-03-10 15:50:00,
2013-03-10 12:06:00,55.2,40.0,29.95,SSW,204,10.0,-999.0,56,-99.99,,,0.00,weatherlink.com 1.10,2013-03-10 16:06:00,
2013-03-10 12:21:00,55.4,41.0,29.94,SSE,167,5.0,-999.0,58,-99.99,,,0.00,weatherlink.com 1.10,2013-03-10 16:21:00,
2013-03-10 12:36:00,56.4,41.0,29.94,South,184,5.0,-999.0,56,-99.99,,,0.00,weatherlink.com 1.10,2013-03-10 16:36:00,
2013-03-10 12:51:00,57.0,41.0,29.94,South,178,10.0,-999.0,55,-99.99,,,0.00,weatherlink.com 1.10,2013-03-10 16:51:00,
2013-03-10 13:06:00,58.1,42.0,29.94,SSW,196,6.0,-999.0,55,-99.99,,,0.00,weatherlink.com 1.10,2013-03-10 17:06:00,
2013-03-10 13:21:00,59.5,43.0,29.93,SSE,160,11.0,-999.0,55,-99.99,,,0.00,weatherlink.com 1.10,2013-03-10 17:21:00,
2013-03-10 13:36:00,60.6,44.0,29.92,South,176,5.0,-999.0,54,-99.99,,,0.00,weatherlink.com 1.10,2013-03-10 17:36:00,
2013-03-10 13:51:00,61.2,43.0,29.91,SSW,194,4.0,-999.0,51,-99.99,,,0.00,weatherlink.com 1.10,2013-03-10 17:51:00,
2013-03-10 14:06:00,60.5,43.0,29.91,SSE,165,9.0,-999.0,53,-99.99,,,0.00,weatherlink.com 1.10,2013-03-10 18:06:00,
2013-03-10 14:21:00,60.1,43.0,29.90,South,175,9.0,-999.0,54,-99.99,,,0.00,weatherlink.com 1.10,2013-03-10 18:21:00,
2013-03-10 14:37:00,60.2,44.0,29.91,South,175,6.0,-999.0,55,-99.99,,,0.00,weatherlink.com 1.10,2013-03-10 18:37:00,
2013-03-10 14:52:00,60.6,44.0,29.91,SSE,162,8.0,-999.0,55,-99.99,,,0.00,weatherlink.com 1.10,2013-03-10 18:52:00,
2013-03-10 15:07:00,60.9,44.0,29.90,SSE,160,9.0,-999.0,55,-99.99,,,0.00,weatherlink.com 1.10,2013-03-10 19:07:00,
2013-03-10 15:22:00,61.6,45.0,29.89,South,184,3.0,-999.0,54,-99.99,,,0.00,weatherlink.com 1.10,2013-03-10 19:22:00,
2013-03-10 15:37:00,61.9,45.0,29.89,South,178,6.0,-999.0,54,-99.99,,,0.00,weatherlink.com 1.10,2013-03-10 19:37:00,
2013-03-10 15:52:00,62.8,44.0,29.89,SSE,161,12.0,-999.0,51,-99.99,,,0.00,weatherlink.com 1.10,2013-03-10 19:52:00,
2013-03-10 16:07:00,62.6,44.0,29.87,SSE,165,5.0,-999.0,50,-99.99,,,0.00,weatherlink.com 1.10,2013-03-10 20:07:00,
2013-03-10 16:22:00,62.4,43.0,29.86,SSE,163,8.0,-999.0,49,-99.99,,,0.00,weatherlink.com 1.10,2013-03-10 20:22:00,
2013-03-10 16:37:00,62.4,42.0,29.86,SSE,167,8.0,-999.0,48,-99.99,,,0.00,weatherlink.com 1.10,2013-03-10 20:37:00,
2013-03-10 16:52:00,63.1,42.0,29.85,SSE,149,12.0,-999.0,47,-99.99,,,0.00,weatherlink.com 1.10,2013-03-10 20:52:00,
2013-03-10 17:08:00,63.1,41.0,29.86,SSE,159,5.0,-999.0,45,-99.99,,,0.00,weatherlink.com 1.10,2013-03-10 21:08:00,
2013-03-10 17:23:00,63.4,42.0,29.87,SSE,167,6.0,-999.0,45,-99.99,,,0.00,weatherlink.com 1.10,2013-03-10 21:23:00,
2013-03-10 17:38:00,63.0,41.0,29.87,South,186,3.0,-999.0,45,-99.99,,,0.00,weatherlink.com 1.10,2013-03-10 21:38:00,
2013-03-10 17:53:00,62.2,42.0,29.86,South,170,6.0,-999.0,47,-99.99,,,0.00,weatherlink.com 1.10,2013-03-10 21:53:00,
2013-03-10 18:08:00,62.0,41.0,29.85,SSE,154,5.0,-999.0,47,-99.99,,,0.00,weatherlink.com 1.10,2013-03-10 22:08:00,
2013-03-10 18:23:00,61.8,42.0,29.84,SSE,163,7.0,-999.0,48,-99.99,,,0.00,weatherlink.com 1.10,2013-03-10 22:23:00,
2013-03-10 18:38:00,61.6,42.0,29.84,SE,142,5.0,-999.0,49,-99.99,,,0.00,weatherlink.com 1.10,2013-03-10 22:38:00,
2013-03-10 18:53:00,60.9,42.0,29.82,SE,132,8.0,-999.0,51,-99.99,,,0.00,weatherlink.com 1.10,2013-03-10 22:53:00,
2013-03-10 19:08:00,60.1,43.0,29.82,SE,136,6.0,-999.0,53,-99.99,,,0.00,weatherlink.com 1.10,2013-03-10 23:08:00,
2013-03-10 19:23:00,59.3,43.0,29.82,SE,134,6.0,-999.0,55,-99.99,,,0.00,weatherlink.com 1.10,2013-03-10 23:23:00,
2013-03-10 19:38:00,58.5,43.0,29.82,SE,133,5.0,-999.0,56,-99.99,,,0.00,weatherlink.com 1.10,2013-03-10 23:38:00,
2013-03-10 19:53:00,58.4,42.0,29.82,SE,131,6.0,-999.0,55,-99.99,,,0.00,weatherlink.com 1.10,2013-03-10 23:53:00,
2013-03-10 20:08:00,59.3,41.0,29.82,SSE,147,7.0,-999.0,52,-99.99,,,0.00,weatherlink.com 1.10,2013-03-11 00:08:00,
2013-03-10 20:24:00,59.6,41.0,29.83,SSE,155,9.0,-999.0,51,-99.99,,,0.00,weatherlink.com 1.10,2013-03-11 00:24:00,
2013-03-10 20:39:00,59.6,41.0,29.82,SSE,152,9.0,-999.0,50,-99.99,,,0.00,weatherlink.com 1.10,2013-03-11 00:39:00,
2013-03-10 20:54:00,59.7,40.0,29.82,South,173,5.0,-999.0,48,-99.99,,,0.00,weatherlink.com 1.10,2013-03-11 00:54:00,
2013-03-10 21:09:00,59.8,40.0,29.82,SSE,149,4.0,-999.0,48,-99.99,,,0.00,weatherlink.com 1.10,2013-03-11 01:09:00,
2013-03-10 21:24:00,60.0,40.0,29.82,SSE,159,6.0,-999.0,48,-99.99,,,0.00,weatherlink.com 1.10,2013-03-11 01:24:00,
2013-03-10 21:39:00,60.2,40.0,29.80,SE,140,8.0,-999.0,47,-99.99,,,0.00,weatherlink.com 1.10,2013-03-11 01:39:00,
2013-03-10 21:54:00,59.8,40.0,29.79,SE,131,8.0,-999.0,48,-99.99,,,0.00,weatherlink.com 1.10,2013-03-11 01:54:00,
2013-03-10 22:09:00,60.4,39.0,29.80,SSE,153,10.0,-999.0,46,-99.99,,,0.00,weatherlink.com 1.10,2013-03-11 02:09:00,
2013-03-10 22:24:00,61.3,40.0,29.80,SSE,167,9.0,-999.0,45,-99.99,,,0.00,weatherlink.com 1.10,2013-03-11 02:24:00,
2013-03-10 22:39:00,60.8,40.0,29.80,SSE,159,7.0,-999.0,46,-99.99,,,0.00,weatherlink.com 1.10,2013-03-11 02:39:00,
2013-03-10 22:54:00,60.1,41.0,29.80,SSE,163,9.0,-999.0,50,-99.99,,,0.00,weatherlink.com 1.10,2013-03-11 02:54:00,
2013-03-10 23:09:00,58.6,42.0,29.80,SSE,162,9.0,-999.0,55,-99.99,,,0.00,weatherlink.com 1.10,2013-03-11 03:09:00,
2013-03-10 23:24:00,57.3,43.0,29.80,SSE,158,6.0,-999.0,60,-99.99,,,0.01,weatherlink.com 1.10,2013-03-11 03:24:00,
2013-03-10 23:40:00,57.5,43.0,29.79,South,174,5.0,-999.0,58,-99.99,,,0.01,weatherlink.com 1.10,2013-03-11 03:40:00,
2013-03-10 23:55:00,57.4,43.0,29.79,South,174,5.0,-999.0,59,-99.99,,,0.01,weatherlink.com 1.10,2013-03-11 03:55:00,